• Join FlightAware (Why Join?)
  • Login
  • US Flag 
02:15AM EDT


 

Airport Tracker/Info


-or-


 

Live Flight TrackerFlight Track Log ✈ UAL4108 ✈ 17-Feb-2014 ✈ KRDU - KEWR

Flight Track Log - Related Links

Times and Time Zones

All times are in EST time to prevent confusion due to time zone crossing. See the UAL4108 flight status page for this flight to view local times or setup timezone preferences in your user account.

Time Position Orientation Groundspeed Altitude Reporting Facility
EST Latitude Longitude Course Direction KTS MPH feet Rate Location/Type
06:05PM 35.9008 -78.7794 27° Northeast 156 180 1,400  Level Washington Center
06:06PM 35.9200 -78.7672 27° Northeast 165 190 2,600 2,040 Climbing Washington Center
06:07PM 35.9811 -78.7364 22° Northeast 230 265 4,800 2,040 Climbing Washington Center
06:09PM 36.1014 -78.6950 16° North 297 342 8,200 1,980 Climbing Washington Center
06:10PM 36.1833 -78.6672 15° North 302 348 10,200 1,560 Climbing Washington Center
06:11PM 36.2844 -78.6350 14° North 324 373 11,400 1,080 Climbing Washington Center
06:12PM 36.3769 -78.6053 15° North 357 411 12,400 1,140 Climbing Washington Center
06:13PM 36.4800 -78.5731 14° North 367 422 13,800 1,440 Climbing Washington Center
06:14PM 36.5831 -78.5331 17° North 377 434 15,300 1,320 Climbing Washington Center
06:15PM 36.6883 -78.4956 16° North 382 440 16,500 1,200 Climbing Washington Center
06:16PM 36.7894 -78.4578 17° North 382 440 17,800 1,380 Climbing Washington Center
06:17PM 36.8944 -78.4228 15° North 382 440 19,300 1,740 Climbing Washington Center
06:18PM 37.0039 -78.3825 16° North 377 434 21,400 1,980 Climbing Washington Center
06:19PM 37.0989 -78.3417 19° North 372 428 23,300 1,260 Climbing Washington Center
06:20PM 37.1736 -78.2583 42° Northeast 367 422 24,000 720 Climbing Washington Center
06:21PM 37.2572 -78.1594 43° Northeast 387 445 24,800 900 Climbing Washington Center
06:22PM 37.3428 -78.0578 43° Northeast 400 460 25,800 960 Climbing Washington Center
06:23PM 37.4283 -77.9508 45° Northeast 417 480 26,800 540 Climbing Washington Center
06:24PM 37.5161 -77.8436 44° Northeast 423 487 27,000 60 Climbing Washington Center
06:25PM 37.6158 -77.7494 37° Northeast 433 498 27,000  Level Washington Center
06:26PM 37.7197 -77.6553 36° Northeast 449 517 27,000  Level Washington Center
06:27PM 37.8256 -77.5583 36° Northeast 461 531 27,000  Level Washington Center
06:28PM 37.9333 -77.4611 35° Northeast 461 531 27,000  Level Washington Center
06:29PM 38.0475 -77.3583 35° Northeast 461 531 27,000  Level Washington Center
06:30PM 38.1553 -77.2581 36° Northeast 461 531 27,000  Level Washington Center
06:31PM 38.2506 -77.1675 37° Northeast 467 537 27,000  Level Washington Center
06:32PM 38.3664 -77.0642 35° Northeast 467 537 27,000  Level Washington Center
06:33PM 38.4697 -76.9681 36° Northeast 457 526 27,000  Level Washington Center
06:34PM 38.5731 -76.8717 36° Northeast 457 526 27,000  Level Washington Center
06:35PM 38.6783 -76.7697 37° Northeast 457 526 27,000  Level Washington Center
06:36PM 38.7753 -76.6647 40° Northeast 457 526 27,000  Level Washington Center
06:37PM 38.8719 -76.5542 42° Northeast 462 532 27,000  Level Washington Center
06:38PM 38.9667 -76.4433 42° Northeast 462 532 27,000  Level Washington Center
06:39PM 39.0611 -76.3347 42° Northeast 457 526 27,000  Level Washington Center
06:40PM 39.1556 -76.2233 42° Northeast 457 526 27,000  Level Washington Center
06:41PM 39.2519 -76.1142 41° Northeast 457 526 27,000  Level Washington Center
06:42PM 39.3461 -76.0022 43° Northeast 457 526 27,000  Level Washington Center
06:43PM 39.4381 -75.8953 42° Northeast 451 519 27,000 -180 Level Washington Center
06:44PM 39.5322 -75.7825 43° Northeast 451 519 26,700 -1,440 Descending Washington Center
06:45PM 39.6261 -75.6697 43° Northeast 451 519 24,100 -2,460 Descending Washington Center
06:46PM 39.7197 -75.5592 42° Northeast 451 519 21,800 -2,400 Descending Washington Center
06:47PM 39.8072 -75.4511 43° Northeast 439 505 19,400 -2,400 Descending Washington Center
06:48PM 39.8967 -75.3453 42° Northeast 434 499 17,100 -2,280 Descending Washington Center
06:49PM 39.9797 -75.2478 42° Northeast 417 480 14,900 -2,160 Descending Washington Center
06:50PM 40.0586 -75.1497 44° Northeast 404 465 12,800 -2,040 Descending Washington Center
06:51PM 40.1331 -75.0569 44° Northeast 387 445 10,800 -1,440 Descending Washington Center
06:52PM 40.1972 -74.9778 43° Northeast 357 411 10,000 -1,140 Descending Washington Center
06:53PM 40.2500 -74.9167 41° Northeast 287 330 8,800 -1,140 Descending New York TRACON
06:54PM 40.3000 -74.8500 45° Northeast 276 318 8,000 -420 Descending New York TRACON
06:55PM 40.3500 -74.7667 52° Northeast 275 316 8,000 -60 Level New York TRACON
06:56PM 40.4000 -74.7000 45° Northeast 277 319 7,900 -540 Descending New York TRACON
06:57PM 40.3667 -74.6000 114° Southeast 274 315 7,000 -900 Descending New York TRACON
06:58PM 40.3333 -74.5167 118° Southeast 243 280 6,200 -780 Descending New York TRACON
06:59PM 40.3333 -74.4500 90° East 226 260 5,500 -900 Descending New York TRACON
07:00PM 40.3667 -74.3833 57° Northeast 221 254 4,500 -900 Descending New York TRACON
07:01PM 40.4167 -74.3333 37° Northeast 209 241 3,700 -780 Descending New York TRACON
07:02PM 40.4667 -74.3167 14° North 191 220 3,000 -360 Descending New York TRACON
07:03PM 40.5000 -74.2833 37° Northeast 167 192 3,000  Level New York TRACON
07:04PM 40.5500 -74.2500 27° Northeast 169 194 3,000 -420 Level New York TRACON
07:05PM 40.5833 -74.2333 21° North 169 194 2,200 -900 Descending New York TRACON
07:06PM 40.6333 -74.2000 27° Northeast 146 168 1,300 -900 Descending New York TRACON
07:07PM 40.6667 -74.1833 21° North 133 153 500 -840 Descending New York TRACON
07:09PM 40.6833 -74.1667 23° Northeast  Level FlightAware Approximate